Time;durP1;ratioP1;P1;durP2;ratioP2;P2;SDS_P1;SDS_P2;PMS_P1;PMS_P2;Temp;Humidity;BMP_temperature;BMP_pressure;BME280_temperature;BME280_humidity;BME280_pressure;Samples;Min_cycle;Max_cycle;Signal;HPM_P1;HPM_P2
2021/08/15 00:01:23;;;;;;;22.27;7.35;;;20.40;84.70;;;;;;5051855;28;20112;-71
2021/08/15 00:03:49;;;;;;;20.90;6.90;;;20.40;84.80;;;;;;5052510;28;20040;-71
2021/08/15 00:06:15;;;;;;;14.30;6.50;;;20.30;85.10;;;;;;5052997;28;20029;-72
2021/08/15 00:08:41;;;;;;;17.42;6.63;;;20.30;85.10;;;;;;5052570;28;20122;-71
2021/08/15 00:11:06;;;;;;;22.40;6.40;;;20.30;85.40;;;;;;5052623;28;20481;-71
2021/08/15 00:13:32;;;;;;;17.63;5.97;;;20.20;85.50;;;;;;5052835;28;20134;-71
2021/08/15 00:15:58;;;;;;;18.13;6.10;;;20.10;85.60;;;;;;5052022;28;20485;-72
2021/08/15 00:18:23;;;;;;;15.30;5.72;;;20.10;85.80;;;;;;5052069;28;20472;-72
2021/08/15 00:20:49;;;;;;;22.33;5.95;;;20.10;85.60;;;;;;5052420;28;20094;-72
2021/08/15 00:23:14;;;;;;;20.30;6.75;;;20.20;85.40;;;;;;5051919;28;20045;-72
2021/08/15 00:25:40;;;;;;;18.88;5.90;;;20.20;85.30;;;;;;5052091;28;20446;-72
2021/08/15 00:28:06;;;;;;;17.08;6.18;;;20.20;85.30;;;;;;5051843;28;20033;-72
2021/08/15 00:30:31;;;;;;;17.70;6.38;;;20.20;85.10;;;;;;5051773;28;20025;-71
2021/08/15 00:32:57;;;;;;;11.82;5.70;;;20.10;85.10;;;;;;5052613;28;20060;-73
2021/08/15 00:35:22;;;;;;;19.67;6.32;;;20.10;85.10;;;;;;5051885;28;20052;-72
2021/08/15 00:37:48;;;;;;;15.50;5.93;;;20.00;85.10;;;;;;5051895;28;20123;-73
2021/08/15 00:40:14;;;;;;;11.70;5.40;;;20.00;85.40;;;;;;5050790;28;20124;-71
2021/08/15 00:42:40;;;;;;;12.88;5.35;;;19.90;86.10;;;;;;5051882;28;20059;-73
2021/08/15 00:45:06;;;;;;;15.25;5.80;;;19.90;86.50;;;;;;5052234;28;20100;-72
2021/08/15 00:47:32;;;;;;;11.75;5.35;;;20.00;86.50;;;;;;5051630;28;20044;-72
2021/08/15 00:50:01;;;;;;;15.15;5.28;;;19.90;86.70;;;;;;5051664;28;20025;-72
2021/08/15 00:52:27;;;;;;;13.73;5.85;;;19.90;87.30;;;;;;5051450;28;20033;-73
2021/08/15 00:54:57;;;;;;;16.20;5.43;;;19.90;87.20;;;;;;5051466;28;20028;-72
2021/08/15 00:57:30;;;;;;;19.42;6.10;;;19.80;87.20;;;;;;5051335;28;20466;-72
2021/08/15 00:59:59;;;;;;;13.07;5.78;;;19.80;87.50;;;;;;5051546;28;20026;-72
2021/08/15 01:02:24;;;;;;;12.98;5.63;;;19.70;87.80;;;;;;5051262;28;20100;-73
2021/08/15 01:04:50;;;;;;;13.48;5.53;;;19.70;88.00;;;;;;5051548;28;20119;-74
2021/08/15 01:07:17;;;;;;;17.70;6.05;;;19.60;88.10;;;;;;5051221;28;20065;-72
2021/08/15 01:09:43;;;;;;;14.30;5.60;;;19.60;88.30;;;;;;5050297;28;20029;-73
2021/08/15 01:12:08;;;;;;;14.57;6.45;;;19.60;87.70;;;;;;5050486;28;20021;-72
2021/08/15 01:14:34;;;;;;;21.08;6.57;;;19.70;87.60;;;;;;5051301;28;20536;-73
2021/08/15 01:17:00;;;;;;;14.40;5.90;;;19.60;88.30;;;;;;5050109;28;20355;-72
2021/08/15 01:19:30;;;;;;;16.42;5.70;;;19.50;88.40;;;;;;5051386;28;20126;-72
2021/08/15 01:21:55;;;;;;;13.98;5.30;;;19.50;89.10;;;;;;5051239;28;20112;-71
2021/08/15 01:24:21;;;;;;;10.48;5.15;;;19.40;89.10;;;;;;5050866;28;20179;-72
2021/08/15 01:26:48;;;;;;;20.08;6.35;;;19.40;89.10;;;;;;5051350;28;20112;-71
2021/08/15 01:29:13;;;;;;;16.70;6.05;;;19.40;89.20;;;;;;5050757;28;20414;-72
2021/08/15 01:31:39;;;;;;;17.25;6.47;;;19.30;89.10;;;;;;5050844;28;20040;-72
2021/08/15 01:34:04;;;;;;;18.02;6.30;;;19.30;89.50;;;;;;5050740;28;20029;-72
2021/08/15 01:36:30;;;;;;;15.82;5.68;;;19.20;89.80;;;;;;5036278;28;20064;-72
2021/08/15 01:38:56;;;;;;;14.98;5.70;;;19.20;89.90;;;;;;5031180;28;20103;-71
2021/08/15 01:41:22;;;;;;;19.95;6.75;;;19.20;89.40;;;;;;5029582;28;20553;-71
2021/08/15 01:43:56;;;;;;;15.40;5.75;;;19.20;89.80;;;;;;5030775;28;20112;-71
2021/08/15 01:46:33;;;;;;;18.08;5.90;;;19.10;90.00;;;;;;5030827;28;20033;-71
2021/08/15 01:48:59;;;;;;;13.82;6.07;;;19.00;90.10;;;;;;5030705;28;20057;-71
2021/08/15 01:51:26;;;;;;;13.93;5.85;;;19.00;90.20;;;;;;5030704;28;20029;-70
2021/08/15 01:53:54;;;;;;;14.63;5.60;;;19.00;90.40;;;;;;5031050;28;20052;-70
2021/08/15 01:56:21;;;;;;;13.10;5.97;;;19.00;90.30;;;;;;5030795;28;20040;-71
2021/08/15 01:58:46;;;;;;;18.92;7.25;;;19.00;89.80;;;;;;5030506;28;20059;-72
2021/08/15 02:01:17;;;;;;;12.80;5.70;;;19.00;90.00;;;;;;5030689;28;20491;-72
2021/08/15 02:03:44;;;;;;;16.15;5.22;;;19.00;90.10;;;;;;5030864;28;20036;-71
2021/08/15 02:06:09;;;;;;;14.73;6.22;;;19.00;90.10;;;;;;5030817;28;20018;-72
2021/08/15 02:08:35;;;;;;;15.05;5.55;;;19.00;90.10;;;;;;5030452;28;20108;-72
2021/08/15 02:11:01;;;;;;;19.90;5.75;;;19.00;90.30;;;;;;5030723;28;20053;-71
2021/08/15 02:13:27;;;;;;;10.70;5.00;;;18.90;90.30;;;;;;5029247;28;20116;-71
2021/08/15 02:15:52;;;;;;;15.70;5.93;;;18.90;90.10;;;;;;5030399;28;20359;-71
2021/08/15 02:18:18;;;;;;;12.93;5.43;;;18.90;90.10;;;;;;5030462;28;20064;-72
2021/08/15 02:20:43;;;;;;;17.50;5.68;;;19.00;90.20;;;;;;5030802;28;20108;-71
2021/08/15 02:23:09;;;;;;;18.00;6.40;;;19.00;90.10;;;;;;5031191;28;20368;-71
2021/08/15 02:25:35;;;;;;;11.38;5.40;;;18.90;90.30;;;;;;5034435;28;20485;-71
2021/08/15 02:28:02;;;;;;;13.25;5.20;;;18.90;90.50;;;;;;5034341;28;20037;-71
2021/08/15 02:30:27;;;;;;;20.05;5.43;;;18.80;90.60;;;;;;5033954;28;20039;-73
2021/08/15 02:32:53;;;;;;;12.52;5.43;;;18.80;90.90;;;;;;5034551;28;20033;-73
2021/08/15 02:35:20;;;;;;;14.02;5.82;;;18.60;90.90;;;;;;5034190;28;20506;-73
2021/08/15 02:37:48;;;;;;;19.40;5.75;;;18.60;91.00;;;;;;5034368;28;20090;-72
2021/08/15 02:40:15;;;;;;;13.63;5.35;;;18.60;90.90;;;;;;5034069;28;20033;-73
2021/08/15 02:42:43;;;;;;;17.60;5.82;;;18.60;91.00;;;;;;5033909;28;20025;-72
2021/08/15 02:45:11;;;;;;;10.38;5.00;;;18.60;90.80;;;;;;5034191;28;20448;-72
2021/08/15 02:47:37;;;;;;;15.95;5.40;;;18.50;91.00;;;;;;5033778;28;20034;-71
2021/08/15 02:50:04;;;;;;;12.48;5.15;;;18.50;91.10;;;;;;5032514;28;20372;-72
2021/08/15 02:52:29;;;;;;;11.98;4.95;;;18.40;91.20;;;;;;5033842;28;20026;-71
2021/08/15 02:54:55;;;;;;;12.60;5.30;;;18.40;91.20;;;;;;5033964;28;20032;-71
2021/08/15 02:57:20;;;;;;;15.88;5.93;;;18.40;91.40;;;;;;5033671;28;20045;-71
2021/08/15 02:59:46;;;;;;;11.75;5.13;;;18.30;91.50;;;;;;5034244;28;20104;-71
2021/08/15 03:02:15;;;;;;;13.10;5.13;;;18.30;91.70;;;;;;5032374;28;20410;-71
2021/08/15 03:04:42;;;;;;;12.10;5.47;;;18.20;91.70;;;;;;5033837;28;20037;-71
2021/08/15 03:07:08;;;;;;;12.05;4.50;;;18.20;91.70;;;;;;5033255;28;20507;-71
2021/08/15 03:09:33;;;;;;;13.70;4.65;;;18.10;91.70;;;;;;5032243;28;20034;-71
2021/08/15 03:11:59;;;;;;;14.48;5.65;;;18.00;91.90;;;;;;5033589;28;20036;-71
2021/08/15 03:14:25;;;;;;;15.50;5.03;;;18.00;92.00;;;;;;5033644;28;20022;-71
2021/08/15 03:16:51;;;;;;;17.15;5.22;;;18.00;92.00;;;;;;5033368;28;20060;-71
2021/08/15 03:19:16;;;;;;;13.38;5.05;;;18.00;92.10;;;;;;5033267;28;20034;-71
2021/08/15 03:21:42;;;;;;;10.80;4.93;;;18.00;92.10;;;;;;5033258;28;20344;-72
2021/08/15 03:24:09;;;;;;;14.18;5.60;;;17.90;92.20;;;;;;5033444;28;20527;-71
2021/08/15 03:26:36;;;;;;;13.52;5.30;;;17.90;92.20;;;;;;5033611;28;20060;-72
2021/08/15 03:29:03;;;;;;;15.18;5.30;;;17.90;92.30;;;;;;5033376;28;20037;-72
2021/08/15 03:31:28;;;;;;;15.75;5.75;;;17.80;92.40;;;;;;5033462;28;20041;-72
2021/08/15 03:33:54;;;;;;;14.00;6.05;;;17.70;92.50;;;;;;5033348;28;20037;-72
2021/08/15 03:36:20;;;;;;;16.08;5.43;;;17.70;92.50;;;;;;5032350;28;20094;-72
2021/08/15 03:38:45;;;;;;;13.38;5.97;;;17.70;92.70;;;;;;5033640;28;20668;-72
2021/08/15 03:41:11;;;;;;;11.95;5.95;;;17.80;92.60;;;;;;5033009;28;20038;-72
2021/08/15 03:43:37;;;;;;;17.10;6.40;;;17.80;92.70;;;;;;5032994;28;20034;-72
2021/08/15 03:46:03;;;;;;;19.40;6.28;;;17.80;92.60;;;;;;5032691;28;20148;-72
2021/08/15 03:48:28;;;;;;;20.55;7.32;;;17.90;92.60;;;;;;5032951;28;20120;-72
2021/08/15 03:50:54;;;;;;;18.50;6.75;;;17.90;92.80;;;;;;5033124;28;20033;-72
2021/08/15 03:53:20;;;;;;;18.77;6.93;;;17.80;92.90;;;;;;5032776;28;20033;-72
2021/08/15 03:55:45;;;;;;;17.65;6.82;;;17.80;92.80;;;;;;5032793;28;20072;-72
2021/08/15 03:58:11;;;;;;;14.40;5.85;;;17.80;93.10;;;;;;5032653;28;20049;-71
2021/08/15 04:00:40;;;;;;;14.85;5.72;;;17.80;93.10;;;;;;5032559;28;20045;-71
2021/08/15 04:03:11;;;;;;;17.83;6.43;;;17.80;93.20;;;;;;5033501;28;20022;-72
2021/08/15 04:05:37;;;;;;;15.25;5.88;;;17.80;93.20;;;;;;5032584;28;20087;-71
2021/08/15 04:08:05;;;;;;;18.73;5.93;;;17.80;93.20;;;;;;5032606;28;20033;-72
2021/08/15 04:10:32;;;;;;;17.20;6.75;;;17.80;93.40;;;;;;5032544;28;20037;-72
2021/08/15 04:12:57;;;;;;;11.93;5.90;;;17.80;93.20;;;;;;5032162;28;20034;-71
2021/08/15 04:15:23;;;;;;;14.88;5.97;;;17.80;93.20;;;;;;5032152;28;20037;-71
2021/08/15 04:17:48;;;;;;;12.70;5.70;;;17.80;93.20;;;;;;5031898;28;20049;-71
2021/08/15 04:20:14;;;;;;;15.20;6.47;;;17.80;93.00;;;;;;5032098;28;20072;-72
2021/08/15 04:22:40;;;;;;;16.88;5.95;;;17.90;93.30;;;;;;5032034;28;20349;-71
2021/08/15 04:25:06;;;;;;;17.88;6.95;;;17.80;93.10;;;;;;5031979;28;20144;-71
2021/08/15 04:27:32;;;;;;;15.98;6.68;;;17.80;93.40;;;;;;5032082;28;20021;-71
2021/08/15 04:29:58;;;;;;;19.17;6.63;;;17.80;93.20;;;;;;5032316;28;20013;-71
2021/08/15 04:32:23;;;;;;;19.25;6.68;;;17.90;93.00;;;;;;5031911;28;20029;-72
2021/08/15 04:34:49;;;;;;;26.70;6.72;;;17.90;93.10;;;;;;5031834;28;20026;-70
2021/08/15 04:37:17;;;;;;;15.20;5.70;;;17.90;93.10;;;;;;5032088;28;20356;-70
2021/08/15 04:39:46;;;;;;;16.48;6.38;;;17.90;93.30;;;;;;5030486;28;20036;-70
2021/08/15 04:42:12;;;;;;;18.58;6.93;;;17.90;93.40;;;;;;5032277;28;20028;-70
2021/08/15 04:44:38;;;;;;;16.33;6.40;;;17.90;93.40;;;;;;5031526;28;20036;-71
2021/08/15 04:47:04;;;;;;;17.73;6.93;;;17.80;93.40;;;;;;5031266;28;20033;-71
2021/08/15 04:49:30;;;;;;;23.33;6.22;;;17.90;93.30;;;;;;5031646;28;20034;-70
2021/08/15 04:51:56;;;;;;;19.10;6.45;;;17.90;93.20;;;;;;5031510;28;20040;-71
2021/08/15 04:54:26;;;;;;;16.35;6.03;;;18.00;93.20;;;;;;5031270;28;20029;-71
2021/08/15 04:56:52;;;;;;;16.13;6.63;;;18.00;93.20;;;;;;5031898;28;20451;-72
2021/08/15 04:59:17;;;;;;;17.45;6.70;;;18.00;93.30;;;;;;5031610;28;20026;-71
2021/08/15 05:01:43;;;;;;;17.77;6.88;;;18.00;93.10;;;;;;5031292;28;20037;-70
2021/08/15 05:04:08;;;;;;;15.77;7.00;;;18.00;93.50;;;;;;5030343;28;20451;-70
2021/08/15 05:06:34;;;;;;;14.10;6.40;;;18.00;93.30;;;;;;5031347;28;20037;-71
2021/08/15 05:08:59;;;;;;;13.63;6.47;;;18.00;93.40;;;;;;5031663;28;20064;-70
2021/08/15 05:11:25;;;;;;;21.00;5.93;;;18.00;93.40;;;;;;5031243;28;20064;-70
2021/08/15 05:13:51;;;;;;;14.05;6.70;;;17.90;93.60;;;;;;5031290;28;20116;-70
2021/08/15 05:16:16;;;;;;;18.95;7.53;;;17.90;93.60;;;;;;5031406;28;20415;-71
2021/08/15 05:18:42;;;;;;;26.25;6.50;;;18.00;93.70;;;;;;5031121;28;20025;-70
2021/08/15 05:21:07;;;;;;;19.65;6.75;;;18.00;93.70;;;;;;5031795;28;20500;-71
2021/08/15 05:23:33;;;;;;;17.85;5.80;;;18.00;93.40;;;;;;5031421;28;20054;-70
2021/08/15 05:25:59;;;;;;;19.23;7.45;;;18.00;93.60;;;;;;5031059;28;20026;-71
2021/08/15 05:28:24;;;;;;;18.08;6.05;;;18.00;93.60;;;;;;5030756;28;20057;-70
2021/08/15 05:30:50;;;;;;;21.00;6.90;;;18.00;93.50;;;;;;5030891;28;20163;-72
2021/08/15 05:33:16;;;;;;;22.65;7.03;;;18.00;93.50;;;;;;5031396;28;20122;-72
2021/08/15 05:35:41;;;;;;;20.15;6.70;;;18.10;93.80;;;;;;5030987;28;20095;-71
2021/08/15 05:38:07;;;;;;;18.33;6.82;;;18.10;93.60;;;;;;5030837;28;20034;-71
2021/08/15 05:40:32;;;;;;;25.40;7.35;;;18.20;93.60;;;;;;5030577;28;20036;-70
2021/08/15 05:42:58;;;;;;;18.92;6.97;;;18.20;94.10;;;;;;5030601;28;20053;-70
2021/08/15 05:45:24;;;;;;;16.73;6.63;;;18.20;93.80;;;;;;5030857;28;20034;-72
2021/08/15 05:47:49;;;;;;;17.15;7.13;;;18.20;93.70;;;;;;5031508;28;20363;-72
2021/08/15 05:50:15;;;;;;;20.83;6.78;;;18.20;93.60;;;;;;5030867;28;20121;-71
2021/08/15 05:52:40;;;;;;;19.58;7.15;;;18.20;93.70;;;;;;5030960;28;20467;-73
2021/08/15 05:55:07;;;;;;;19.20;7.05;;;18.30;93.80;;;;;;5030997;28;20034;-73
2021/08/15 05:57:33;;;;;;;15.52;6.50;;;18.30;93.70;;;;;;5030128;28;20111;-73
2021/08/15 05:59:58;;;;;;;14.68;6.32;;;18.30;93.70;;;;;;5031075;28;20443;-72
2021/08/15 06:02:24;;;;;;;16.48;7.22;;;18.30;93.60;;;;;;5029771;28;20196;-73
2021/08/15 06:04:49;;;;;;;20.42;7.68;;;18.40;93.50;;;;;;5031007;28;20040;-74
2021/08/15 06:07:15;;;;;;;25.90;6.82;;;18.40;93.60;;;;;;5030742;28;20043;-73
2021/08/15 06:09:40;;;;;;;12.40;6.30;;;18.50;93.40;;;;;;5030769;28;20486;-72
2021/08/15 06:12:07;;;;;;;15.35;6.88;;;18.50;93.60;;;;;;5030932;28;20378;-74
2021/08/15 06:14:34;;;;;;;15.07;6.35;;;18.60;93.60;;;;;;5030677;28;20467;-74
2021/08/15 06:16:59;;;;;;;17.58;7.18;;;18.60;93.50;;;;;;5030650;28;20065;-72
2021/08/15 06:19:25;;;;;;;17.67;6.80;;;18.70;93.50;;;;;;5030770;28;20034;-74
2021/08/15 06:21:50;;;;;;;18.20;6.70;;;18.70;93.60;;;;;;5029444;28;20061;-73
2021/08/15 06:24:16;;;;;;;19.10;6.65;;;18.70;93.70;;;;;;5031011;28;20486;-73
2021/08/15 06:26:42;;;;;;;19.25;7.78;;;18.70;93.70;;;;;;5030646;28;20487;-73
2021/08/15 06:29:07;;;;;;;23.30;7.65;;;18.80;93.60;;;;;;5029502;28;20348;-71
2021/08/15 06:31:33;;;;;;;17.58;6.68;;;18.90;93.60;;;;;;5030452;28;20088;-73
2021/08/15 06:33:58;;;;;;;18.23;7.20;;;18.90;93.40;;;;;;5030601;28;20056;-72
2021/08/15 06:36:24;;;;;;;15.20;7.13;;;19.00;93.40;;;;;;5030456;28;20030;-71
2021/08/15 06:38:50;;;;;;;21.63;7.80;;;19.20;93.40;;;;;;5030918;28;20604;-71
2021/08/15 06:41:16;;;;;;;17.55;6.97;;;19.20;93.30;;;;;;5030409;28;20030;-72
2021/08/15 06:43:41;;;;;;;17.65;6.85;;;19.30;93.20;;;;;;5030376;28;20174;-72
2021/08/15 06:46:07;;;;;;;22.20;7.22;;;19.40;93.00;;;;;;5028988;28;20029;-71
2021/08/15 06:48:32;;;;;;;13.80;6.75;;;19.50;92.90;;;;;;5030113;28;20022;-74
2021/08/15 06:50:59;;;;;;;17.98;7.28;;;19.60;92.90;;;;;;5030584;28;20051;-72
2021/08/15 06:53:29;;;;;;;19.92;8.52;;;19.70;92.80;;;;;;5029247;28;20064;-72
2021/08/15 06:55:56;;;;;;;21.02;8.57;;;19.70;92.70;;;;;;5030388;28;20106;-72
2021/08/15 06:58:22;;;;;;;22.63;7.78;;;19.80;92.60;;;;;;5030229;28;20040;-72
2021/08/15 07:00:48;;;;;;;19.10;8.02;;;19.80;92.60;;;;;;5029919;28;20034;-71
2021/08/15 07:03:13;;;;;;;16.02;7.32;;;19.90;92.40;;;;;;5030486;28;20083;-72
2021/08/15 07:05:39;;;;;;;22.92;7.68;;;19.90;92.40;;;;;;5030121;28;20522;-71
2021/08/15 07:08:05;;;;;;;19.52;7.50;;;20.00;92.50;;;;;;5030123;28;20087;-72
2021/08/15 07:10:30;;;;;;;24.05;9.82;;;20.00;92.40;;;;;;5032984;28;20033;-73
2021/08/15 07:12:58;;;;;;;18.33;7.93;;;20.10;92.20;;;;;;5033572;28;20033;-72
2021/08/15 07:15:28;;;;;;;21.67;8.77;;;20.20;92.20;;;;;;5033425;28;20355;-71
2021/08/15 07:17:57;;;;;;;19.63;6.97;;;20.20;92.20;;;;;;5034029;28;20048;-72
2021/08/15 07:20:24;;;;;;;19.55;7.22;;;20.30;92.30;;;;;;5033549;28;20037;-72
2021/08/15 07:22:50;;;;;;;16.73;6.72;;;20.30;92.10;;;;;;5033232;28;20080;-71
2021/08/15 07:25:19;;;;;;;16.13;6.85;;;20.40;92.30;;;;;;5033492;28;20029;-73
2021/08/15 07:27:45;;;;;;;23.27;7.15;;;20.40;92.20;;;;;;5032281;28;20348;-73
2021/08/15 07:30:12;;;;;;;16.60;7.15;;;20.40;92.10;;;;;;5033639;28;20030;-71
2021/08/15 07:33:04;;;;;;;17.42;7.22;;;20.50;92.10;;;;;;5033352;28;20030;-70
2021/08/15 07:35:32;;;;;;;13.85;6.53;;;20.60;92.00;;;;;;5033145;28;20053;-72
2021/08/15 07:37:58;;;;;;;16.77;6.68;;;20.70;92.00;;;;;;5033235;28;20032;-70
2021/08/15 07:40:24;;;;;;;20.70;7.15;;;20.80;92.00;;;;;;5033169;28;20026;-72
2021/08/15 07:42:51;;;;;;;24.60;7.18;;;20.90;92.10;;;;;;5033149;28;20089;-72
2021/08/15 07:45:17;;;;;;;23.40;7.50;;;21.00;91.90;;;;;;5033411;28;20021;-71
2021/08/15 07:47:44;;;;;;;20.58;7.43;;;21.00;91.60;;;;;;5032904;28;20037;-71
2021/08/15 07:50:10;;;;;;;22.85;7.57;;;21.10;91.50;;;;;;5032687;28;20455;-72
2021/08/15 07:52:36;;;;;;;21.65;7.35;;;21.10;91.60;;;;;;5032746;28;20431;-72
2021/08/15 07:55:03;;;;;;;20.55;7.65;;;21.10;91.50;;;;;;5032705;28;20072;-72
2021/08/15 07:57:30;;;;;;;19.40;7.90;;;21.20;91.50;;;;;;5032550;28;20033;-72
2021/08/15 07:59:56;;;;;;;23.00;7.93;;;21.30;91.30;;;;;;5032146;28;20116;-72
2021/08/15 08:02:22;;;;;;;20.48;7.07;;;21.30;91.20;;;;;;5032364;28;20542;-73
2021/08/15 08:04:50;;;;;;;23.75;8.52;;;21.30;91.30;;;;;;5032605;28;20037;-72
2021/08/15 08:07:19;;;;;;;20.77;7.30;;;21.40;91.40;;;;;;5032668;28;20483;-70
2021/08/15 08:09:46;;;;;;;19.77;7.85;;;21.50;91.30;;;;;;5032640;28;20041;-72
2021/08/15 08:12:12;;;;;;;22.77;6.95;;;21.60;91.20;;;;;;5032984;28;20394;-70
2021/08/15 08:14:38;;;;;;;18.50;7.18;;;21.80;91.10;;;;;;5031989;28;20559;-71
2021/08/15 08:17:03;;;;;;;21.75;7.15;;;21.90;91.10;;;;;;5032061;28;20204;-72
2021/08/15 08:19:29;;;;;;;18.48;6.80;;;22.10;90.90;;;;;;5032609;28;20028;-70
2021/08/15 08:21:54;;;;;;;24.30;9.50;;;22.20;90.70;;;;;;5031232;28;20431;-71
2021/08/15 08:24:20;;;;;;;23.60;8.85;;;22.40;90.30;;;;;;5032077;28;20120;-72
2021/08/15 08:26:46;;;;;;;19.55;7.75;;;22.60;90.10;;;;;;5032505;28;20470;-72
2021/08/15 08:29:11;;;;;;;18.95;7.68;;;23.10;89.70;;;;;;5032208;28;20056;-73
2021/08/15 08:31:37;;;;;;;21.40;7.43;;;23.70;88.60;;;;;;5032375;28;20033;-74
2021/08/15 08:34:02;;;;;;;21.05;7.20;;;24.80;86.50;;;;;;5032254;28;20519;-72
2021/08/15 08:36:28;;;;;;;25.02;7.57;;;25.50;83.60;;;;;;5031836;28;20040;-71
2021/08/15 08:38:53;;;;;;;14.77;7.20;;;26.20;81.70;;;;;;5032340;28;20029;-72
2021/08/15 08:41:20;;;;;;;16.17;6.93;;;27.10;79.90;;;;;;5031756;28;20041;-71
2021/08/15 08:43:46;;;;;;;19.70;7.63;;;27.70;76.00;;;;;;5031868;28;20033;-71
2021/08/15 08:46:12;;;;;;;24.35;7.13;;;28.70;73.10;;;;;;5030680;28;20367;-71
2021/08/15 08:48:39;;;;;;;15.65;7.10;;;29.40;72.40;;;;;;5031660;28;20037;-70
2021/08/15 08:51:05;;;;;;;17.63;7.30;;;30.40;69.10;;;;;;5032063;28;20080;-71
2021/08/15 08:53:38;;;;;;;15.23;6.68;;;31.20;66.30;;;;;;5031707;28;20057;-71
2021/08/15 08:56:04;;;;;;;14.50;7.80;;;31.20;63.60;;;;;;5031507;28;20103;-70
2021/08/15 08:58:29;;;;;;;19.15;7.72;;;31.60;61.80;;;;;;5031470;28;20468;-69
2021/08/15 09:00:55;;;;;;;25.58;8.55;;;32.00;60.90;;;;;;5031196;28;20128;-70
2021/08/15 09:03:20;;;;;;;16.05;7.13;;;32.10;58.70;;;;;;5031451;28;20029;-71
2021/08/15 09:05:54;;;;;;;16.10;7.38;;;32.10;59.30;;;;;;5031671;28;20025;-70
2021/08/15 09:08:34;;;;;;;16.73;7.75;;;32.90;57.90;;;;;;5031419;28;20491;-71
2021/08/15 09:11:12;;;;;;;17.23;7.28;;;33.70;57.00;;;;;;5031470;28;20029;-70
2021/08/15 09:13:38;;;;;;;19.73;7.63;;;33.70;55.20;;;;;;5031273;28;20026;-71
2021/08/15 09:16:03;;;;;;;14.30;6.55;;;34.20;55.70;;;;;;5031390;28;20203;-67
2021/08/15 09:18:30;;;;;;;18.30;6.63;;;34.90;53.10;;;;;;5031082;28;20025;-70
2021/08/15 09:20:56;;;;;;;13.70;5.57;;;33.90;52.30;;;;;;5031597;28;20037;-71
2021/08/15 09:23:30;;;;;;;15.88;6.60;;;32.10;54.10;;;;;;5031034;28;20374;-69
2021/08/15 09:26:25;;;;;;;15.77;6.00;;;31.80;55.20;;;;;;5030997;28;20507;-71
2021/08/15 09:28:51;;;;;;;12.70;5.68;;;31.10;56.20;;;;;;5046335;28;20116;-69
2021/08/15 09:31:30;;;;;;;9.90;5.10;;;30.40;57.20;;;;;;5031016;28;20120;-70
2021/08/15 09:33:57;;;;;;;14.57;4.75;;;30.60;56.70;;;;;;5030250;28;20122;-69
2021/08/15 09:36:38;;;;;;;12.95;5.13;;;30.50;57.40;;;;;;5030999;28;20025;-70
2021/08/15 09:39:06;;;;;;;10.10;4.43;;;30.00;57.50;;;;;;5031156;28;20032;-70
2021/08/15 09:41:36;;;;;;;;;;;29.90;57.70;;;;;;5031358;28;20135;-70
2021/08/15 09:44:26;;;;;;;10.82;4.60;;;30.20;57.70;;;;;;5030900;28;20326;-70
2021/08/15 09:46:55;;;;;;;10.88;4.32;;;30.50;57.50;;;;;;5030720;28;20044;-69
2021/08/15 09:49:21;;;;;;;11.70;4.90;;;30.60;57.00;;;;;;5031011;28;20060;-69
2021/08/15 09:51:46;;;;;;;13.32;5.45;;;29.90;57.30;;;;;;5030707;28;20033;-68
2021/08/15 09:54:17;;;;;;;15.80;5.70;;;28.20;60.40;;;;;;5031216;28;20029;-70
2021/08/15 09:56:43;;;;;;;14.57;5.60;;;27.80;61.50;;;;;;5031101;28;20033;-69
2021/08/15 09:59:20;;;;;;;10.90;5.72;;;28.30;62.40;;;;;;5030681;28;20539;-71
2021/08/15 10:01:53;;;;;;;12.52;6.30;;;28.60;60.60;;;;;;5030447;28;20041;-70
2021/08/15 10:04:21;;;;;;;16.63;5.75;;;28.00;62.00;;;;;;5030921;28;20029;-70
2021/08/15 10:06:51;;;;;;;18.42;6.53;;;28.10;62.40;;;;;;5050428;28;20041;-70
2021/08/15 10:09:19;;;;;;;16.17;6.85;;;27.70;63.10;;;;;;5050551;28;20112;-69
2021/08/15 10:11:45;;;;;;;15.15;7.32;;;27.50;63.90;;;;;;5050992;28;20032;-69
2021/08/15 10:14:12;;;;;;;18.80;7.22;;;27.60;63.80;;;;;;5050521;28;20075;-69
2021/08/15 10:16:44;;;;;;;17.77;7.60;;;27.70;64.00;;;;;;5050387;28;20044;-69
2021/08/15 10:19:16;;;;;;;24.65;8.18;;;27.70;63.70;;;;;;5049452;28;20033;-69
2021/08/15 10:21:44;;;;;;;15.88;7.55;;;27.50;63.90;;;;;;5050552;28;20032;-69
2021/08/15 10:24:12;;;;;;;16.17;7.03;;;27.20;64.80;;;;;;5050531;28;20120;-69
2021/08/15 10:26:50;;;;;;;16.05;7.93;;;27.30;65.10;;;;;;5050243;28;20271;-70
2021/08/15 10:29:55;;;;;;;16.90;7.35;;;27.30;65.10;;;;;;5050257;28;20355;-70
2021/08/15 10:32:22;;;;;;;14.50;7.00;;;27.20;65.60;;;;;;5027819;28;20128;-69
2021/08/15 10:34:51;;;;;;;15.23;6.72;;;27.20;65.70;;;;;;5046350;28;20042;-70
2021/08/15 10:37:22;;;;;;;18.63;7.22;;;27.10;65.30;;;;;;5050159;28;20462;-69
2021/08/15 10:39:48;;;;;;;16.92;6.97;;;26.90;66.40;;;;;;5048978;28;20033;-70
2021/08/15 10:42:34;;;;;;;11.23;5.88;;;26.70;66.70;;;;;;5050480;28;20187;-71
2021/08/15 10:45:08;;;;;;;12.63;5.70;;;26.80;66.00;;;;;;5052178;28;20025;-70
2021/08/15 10:47:35;;;;;;;12.23;5.25;;;26.90;65.80;;;;;;5054171;28;20028;-72
2021/08/15 10:50:02;;;;;;;9.02;4.85;;;27.00;66.40;;;;;;5054225;28;20148;-71
2021/08/15 10:52:31;;;;;;;;;;;26.90;65.90;;;;;;5054541;28;20116;-70
2021/08/15 10:55:01;;;;;;;14.32;4.90;;;27.00;65.60;;;;;;5053867;28;19916;-71
2021/08/15 10:57:54;;;;;;;12.05;5.03;;;26.70;65.70;;;;;;5051886;28;20021;-71
2021/08/15 11:00:29;;;;;;;10.55;4.20;;;26.80;66.00;;;;;;5051244;28;20478;-71
2021/08/15 11:02:59;;;;;;;11.70;4.72;;;26.80;66.40;;;;;;5054215;28;20017;-71
2021/08/15 11:05:40;;;;;;;9.38;5.38;;;26.80;66.30;;;;;;5053843;28;20045;-71
2021/08/15 11:08:31;;;;;;;17.08;6.57;;;26.80;66.20;;;;;;5053684;28;20040;-70
2021/08/15 11:11:08;;;;;;;11.38;5.15;;;27.00;66.00;;;;;;5053578;28;20049;-70
2021/08/15 11:13:35;;;;;;;8.57;4.73;;;27.10;65.70;;;;;;5053277;28;20036;-71
2021/08/15 11:16:22;;;;;;;11.80;4.60;;;27.20;65.80;;;;;;5053326;28;20108;-70
2021/08/15 11:19:13;;;;;;;12.57;4.60;;;27.30;65.20;;;;;;5053450;28;20051;-69
2021/08/15 11:22:09;;;;;;;8.77;4.55;;;27.20;65.00;;;;;;5053190;28;20033;-71
2021/08/15 11:24:44;;;;;;;9.73;4.90;;;27.40;64.60;;;;;;5053347;28;20048;-69
2021/08/15 11:27:32;;;;;;;6.70;4.13;;;27.20;64.60;;;;;;5053615;28;20025;-70
2021/08/15 11:30:06;;;;;;;10.15;4.57;;;27.30;64.70;;;;;;5052411;28;20041;-71
2021/08/15 11:32:33;;;;;;;9.10;4.45;;;27.40;63.30;;;;;;5053163;28;20179;-70
2021/08/15 11:35:08;;;;;;;9.32;4.30;;;27.50;63.30;;;;;;5053125;28;20037;-71
2021/08/15 11:37:40;;;;;;;8.77;4.13;;;27.50;63.30;;;;;;5052734;28;20044;-70
2021/08/15 11:40:20;;;;;;;8.13;4.15;;;27.50;63.70;;;;;;5053153;28;20063;-71
2021/08/15 11:42:55;;;;;;;12.32;4.18;;;27.40;63.50;;;;;;5052868;28;20265;-70
2021/08/15 11:45:36;;;;;;;11.75;3.88;;;27.40;63.20;;;;;;5052954;28;20451;-74
2021/08/15 11:48:09;;;;;;;9.80;4.03;;;27.40;63.20;;;;;;5053284;28;20658;-71
2021/08/15 11:50:36;;;;;;;10.40;5.47;;;27.60;63.60;;;;;;5052891;28;20091;-71
2021/08/15 11:53:02;;;;;;;12.15;6.22;;;27.70;63.00;;;;;;5052819;28;20033;-70
2021/08/15 11:55:30;;;;;;;12.50;5.00;;;27.80;62.80;;;;;;5050846;28;20033;-70
2021/08/15 11:57:57;;;;;;;10.13;4.65;;;27.70;62.80;;;;;;5052422;28;20032;-69
2021/08/15 12:00:31;;;;;;;8.55;4.38;;;27.60;62.70;;;;;;5051351;28;20079;-70
2021/08/15 12:03:01;;;;;;;7.03;4.40;;;27.70;63.00;;;;;;5052659;28;20049;-69
2021/08/15 12:05:27;;;;;;;9.10;4.68;;;27.70;62.90;;;;;;5052262;28;20025;-70
2021/08/15 12:08:00;;;;;;;7.65;4.30;;;27.70;63.20;;;;;;5051482;28;20356;-71
2021/08/15 12:10:29;;;;;;;8.73;4.05;;;27.80;63.40;;;;;;5052464;28;20383;-70
2021/08/15 12:13:34;;;;;;;9.40;3.67;;;27.80;62.60;;;;;;5052321;28;20323;-70
2021/08/15 12:15:59;;;;;;;11.00;4.78;;;27.70;63.40;;;;;;5040938;28;20112;-74
2021/08/15 12:18:39;;;;;;;12.77;4.57;;;27.80;62.50;;;;;;5052008;28;20100;-69
2021/08/15 12:21:21;;;;;;;8.57;3.83;;;27.70;63.60;;;;;;5052532;28;20029;-70
2021/08/15 12:24:00;;;;;;;9.25;3.90;;;27.90;62.70;;;;;;5052083;28;20348;-68
2021/08/15 12:26:29;;;;;;;11.18;3.83;;;28.00;62.80;;;;;;5052027;28;20032;-70
2021/08/15 12:29:00;;;;;;;6.35;3.30;;;27.80;62.00;;;;;;5052049;28;20467;-69
2021/08/15 12:31:29;;;;;;;9.63;3.85;;;27.70;61.40;;;;;;5052042;28;20418;-74
2021/08/15 12:34:10;;;;;;;9.45;3.40;;;27.70;61.40;;;;;;5052043;28;20048;-70
2021/08/15 12:36:40;;;;;;;6.03;3.33;;;27.80;61.40;;;;;;5050792;28;20466;-70
2021/08/15 12:39:06;;;;;;;6.65;3.15;;;27.80;60.80;;;;;;5052318;28;20475;-71
2021/08/15 12:41:55;;;;;;;6.95;3.20;;;27.70;60.30;;;;;;5051371;28;20442;-71
2021/08/15 12:44:24;;;;;;;10.77;3.95;;;27.70;60.60;;;;;;5051593;28;20036;-71